Milligan, Florida
Current Conditions -  °F | °C
As of 1:53 PM on Thursday 27 Nov 2014 (Local Time) from KCEW Reporting Station
Clear Clear  
Wind Chill: 58°   Ceiling: Unl
Heat Index: 58°   Visibility: 10mi
Dew Point: 31°   Wind: 9mph
Humidity: 36%   Direction: 340°NNW
Pressure: 30.32"   Gusts: 22mph
Location:  30.75°N, 86.64°W
Report Text: KCEW 271953Z AUTO 34008G19KT 310V020 10SM CLR 14/M01 A3032 RMK AO2 SLP266 T01441006
Loading
Personal Weather Stations






























Interactive Weather Map New forecast layout! Learn more

10-Day Weather Forecast

Advertisements
Track Severe Weather on mobile